Aeroporto :
LOGIN :

Iscrizione | Disclaimer

   EN    FR    IT 

 










Sommario :    VFR   VFR Marginale   IFR   IFR Intensivo   IFR Molto Intensivo
Visibilità : 
Base nubi : 
>= 8 km
>= 3000ft
5 / 8 km
1000 / 3000 ft
1500m / 5 km
500 / 1000 ft
800 / 1500m
200 / 500 ft
< 800m
< 200 ft
Simboli :   Temporali  Nebbia  Neve Forte  Precipitazioni Forti  Vento > 20 kt
SIGMETs :   Varie  Temporali  Ghiacco  Turbolenza  Onda orograficha  Ceneri Vulcaniche







- Altitudine del aeroporto : 357 ft
- Codice IATA : TUF
- Carte del aeroporto


LFOT - Tours

ULTIMO METAR :
  • 201300Z AUTO 19008KT 150V230 9999 SCT024 14/08 Q1023 NOSIG

METARs OBSOLETI :
  • 201230Z AUTO 17006KT 9999 FEW022 13/07 Q1023 NOSIG
  • 201200Z AUTO 17005KT 140V210 9000 NSC 12/07 Q1024 NOSIG
  • 201130Z AUTO 17006KT 140V200 9000 NSC 11/07 Q1024 TEMPO BKN009
  • 201100Z AUTO 15005KT 120V180 9000 NSC 09/07 Q1024 NOSIG
  • 201030Z AUTO 14003KT 100V180 5000 BR SCT002 07/06 Q1024 NOSIG

TAF TAF LFOT
Valido dal 20 a 12 ore il 21 a 12 ore UTC


201100Z 2012/2112 22005KT CAVOK
TEMPO 2020/2110 2000 BR
PROB40
TEMPO 2100/2109 0300 FG VV///
Nessun NOTAM noto per questo aeroporto.



MetMap, La meteo Aeronautica in un colpo d'occhio ! - Copyright ORBIFLY Dicembre 2007 - Disclaimer

ORBIFLY MET'MAP TEAM :

Programmazione e sviluppo : Alexandra Zaïnal
Concezione e sviluppo : Baudouin d'Aumeries
Co-Programmazione e sviluppo : Marc-Olivier Méhu
Supporto tecnico e logistico : Manuel Goepfert
Aiuto per la traduzione : Arnaldo La Scala

Contatto : metmap@orbifly.com




FONTI E CREDITI :

   NOAA